sensor_id;sensor_type;location;lat;lon;timestamp;temperature;humidity
56538;DHT22;42435;53.292;6.000;2023-09-19T00:00:34;14.90;78.70
56538;DHT22;42435;53.292;6.000;2023-09-19T00:03:01;14.90;78.70
56538;DHT22;42435;53.292;6.000;2023-09-19T00:05:28;14.90;78.60
56538;DHT22;42435;53.292;6.000;2023-09-19T00:07:56;14.90;78.60
56538;DHT22;42435;53.292;6.000;2023-09-19T00:10:27;14.90;78.60
56538;DHT22;42435;53.292;6.000;2023-09-19T00:12:57;14.90;78.70
56538;DHT22;42435;53.292;6.000;2023-09-19T00:15:25;14.90;78.60
56538;DHT22;42435;53.292;6.000;2023-09-19T00:17:54;14.90;78.70
56538;DHT22;42435;53.292;6.000;2023-09-19T00:20:20;14.90;78.70
56538;DHT22;42435;53.292;6.000;2023-09-19T00:22:49;14.90;78.70
56538;DHT22;42435;53.292;6.000;2023-09-19T00:25:15;14.90;78.60
56538;DHT22;42435;53.292;6.000;2023-09-19T00:27:41;14.90;78.40
56538;DHT22;42435;53.292;6.000;2023-09-19T00:30:12;15.00;78.10
56538;DHT22;42435;53.292;6.000;2023-09-19T00:32:45;15.00;77.90
56538;DHT22;42435;53.292;6.000;2023-09-19T00:35:16;15.00;77.80
56538;DHT22;42435;53.292;6.000;2023-09-19T00:37:42;15.00;77.60
56538;DHT22;42435;53.292;6.000;2023-09-19T00:40:09;15.10;77.50
56538;DHT22;42435;53.292;6.000;2023-09-19T00:42:39;15.20;77.50
56538;DHT22;42435;53.292;6.000;2023-09-19T00:45:06;15.20;77.60
56538;DHT22;42435;53.292;6.000;2023-09-19T00:47:35;15.20;77.50
56538;DHT22;42435;53.292;6.000;2023-09-19T00:50:00;15.20;77.40
56538;DHT22;42435;53.292;6.000;2023-09-19T00:52:28;15.20;77.30
56538;DHT22;42435;53.292;6.000;2023-09-19T00:54:55;15.20;77.20
56538;DHT22;42435;53.292;6.000;2023-09-19T00:57:21;15.20;77.10
56538;DHT22;42435;53.292;6.000;2023-09-19T00:59:50;15.20;77.00
56538;DHT22;42435;53.292;6.000;2023-09-19T01:02:18;15.20;76.80
56538;DHT22;42435;53.292;6.000;2023-09-19T01:04:45;15.10;76.70
56538;DHT22;42435;53.292;6.000;2023-09-19T01:07:10;15.10;76.50
56538;DHT22;42435;53.292;6.000;2023-09-19T01:09:36;15.00;76.30
56538;DHT22;42435;53.292;6.000;2023-09-19T01:12:04;15.00;76.10
56538;DHT22;42435;53.292;6.000;2023-09-19T01:17:27;14.90;75.80
56538;DHT22;42435;53.292;6.000;2023-09-19T01:22:37;14.80;75.50
56538;DHT22;42435;53.292;6.000;2023-09-19T01:30:52;14.70;75.00
56538;DHT22;42435;53.292;6.000;2023-09-19T01:33:23;14.70;74.90
56538;DHT22;42435;53.292;6.000;2023-09-19T01:35:49;14.60;75.10
56538;DHT22;42435;53.292;6.000;2023-09-19T01:38:15;14.60;75.10
56538;DHT22;42435;53.292;6.000;2023-09-19T01:40:43;14.60;75.10
56538;DHT22;42435;53.292;6.000;2023-09-19T01:43:21;14.50;75.10
56538;DHT22;42435;53.292;6.000;2023-09-19T01:46:12;14.50;75.30
56538;DHT22;42435;53.292;6.000;2023-09-19T01:48:43;14.50;75.30
56538;DHT22;42435;53.292;6.000;2023-09-19T01:51:29;14.50;75.30
56538;DHT22;42435;53.292;6.000;2023-09-19T01:54:02;14.50;75.30
56538;DHT22;42435;53.292;6.000;2023-09-19T01:56:34;14.50;75.30
56538;DHT22;42435;53.292;6.000;2023-09-19T01:59:07;14.50;75.30
56538;DHT22;42435;53.292;6.000;2023-09-19T02:01:37;14.60;75.50
56538;DHT22;42435;53.292;6.000;2023-09-19T02:04:07;14.60;75.50
56538;DHT22;42435;53.292;6.000;2023-09-19T02:06:33;14.50;75.60
56538;DHT22;42435;53.292;6.000;2023-09-19T02:08:59;14.50;75.70
56538;DHT22;42435;53.292;6.000;2023-09-19T02:11:25;14.50;75.80
56538;DHT22;42435;53.292;6.000;2023-09-19T02:13:51;14.50;75.90
56538;DHT22;42435;53.292;6.000;2023-09-19T02:16:20;14.50;75.80
56538;DHT22;42435;53.292;6.000;2023-09-19T02:18:48;14.60;75.80
56538;DHT22;42435;53.292;6.000;2023-09-19T02:21:15;14.60;75.80
56538;DHT22;42435;53.292;6.000;2023-09-19T02:23:41;14.50;75.60
56538;DHT22;42435;53.292;6.000;2023-09-19T02:26:06;14.50;75.50
56538;DHT22;42435;53.292;6.000;2023-09-19T02:28:33;14.50;75.50
56538;DHT22;42435;53.292;6.000;2023-09-19T02:30:59;14.50;75.40
56538;DHT22;42435;53.292;6.000;2023-09-19T02:33:25;14.50;75.40
56538;DHT22;42435;53.292;6.000;2023-09-19T02:35:58;14.50;75.40
56538;DHT22;42435;53.292;6.000;2023-09-19T02:38:26;14.50;75.30
56538;DHT22;42435;53.292;6.000;2023-09-19T02:40:55;14.50;75.40
56538;DHT22;42435;53.292;6.000;2023-09-19T02:43:21;14.50;75.40
56538;DHT22;42435;53.292;6.000;2023-09-19T02:45:48;14.50;75.30
56538;DHT22;42435;53.292;6.000;2023-09-19T02:48:18;14.60;75.30
56538;DHT22;42435;53.292;6.000;2023-09-19T02:50:43;14.60;75.10
56538;DHT22;42435;53.292;6.000;2023-09-19T02:53:09;14.70;75.00
56538;DHT22;42435;53.292;6.000;2023-09-19T02:55:38;14.70;74.90
56538;DHT22;42435;53.292;6.000;2023-09-19T02:58:06;14.70;74.80
56538;DHT22;42435;53.292;6.000;2023-09-19T03:00:33;14.80;74.80
56538;DHT22;42435;53.292;6.000;2023-09-19T03:02:59;14.80;74.80
56538;DHT22;42435;53.292;6.000;2023-09-19T03:05:25;14.80;74.90
56538;DHT22;42435;53.292;6.000;2023-09-19T03:07:51;14.80;74.90
56538;DHT22;42435;53.292;6.000;2023-09-19T03:10:21;14.80;74.80
56538;DHT22;42435;53.292;6.000;2023-09-19T03:12:47;14.80;74.60
56538;DHT22;42435;53.292;6.000;2023-09-19T03:15:16;14.70;74.40
56538;DHT22;42435;53.292;6.000;2023-09-19T03:17:44;14.70;74.20
56538;DHT22;42435;53.292;6.000;2023-09-19T03:20:10;14.70;74.10
56538;DHT22;42435;53.292;6.000;2023-09-19T03:22:38;14.70;73.90
56538;DHT22;42435;53.292;6.000;2023-09-19T03:25:05;14.70;73.70
56538;DHT22;42435;53.292;6.000;2023-09-19T03:27:36;14.60;73.40
56538;DHT22;42435;53.292;6.000;2023-09-19T03:30:03;14.60;73.30
56538;DHT22;42435;53.292;6.000;2023-09-19T03:32:37;14.60;73.00
56538;DHT22;42435;53.292;6.000;2023-09-19T03:35:08;14.60;72.90
56538;DHT22;42435;53.292;6.000;2023-09-19T03:37:43;14.60;72.90
56538;DHT22;42435;53.292;6.000;2023-09-19T03:40:10;14.60;72.90
56538;DHT22;42435;53.292;6.000;2023-09-19T03:42:40;14.60;72.90
56538;DHT22;42435;53.292;6.000;2023-09-19T03:45:07;14.60;72.80
56538;DHT22;42435;53.292;6.000;2023-09-19T03:47:34;14.70;72.80
56538;DHT22;42435;53.292;6.000;2023-09-19T03:50:00;14.60;72.80
56538;DHT22;42435;53.292;6.000;2023-09-19T03:52:29;14.60;72.80
56538;DHT22;42435;53.292;6.000;2023-09-19T03:54:54;14.60;72.80
56538;DHT22;42435;53.292;6.000;2023-09-19T03:57:20;14.60;72.90
56538;DHT22;42435;53.292;6.000;2023-09-19T03:59:46;14.60;72.90
56538;DHT22;42435;53.292;6.000;2023-09-19T04:02:15;14.60;72.90
56538;DHT22;42435;53.292;6.000;2023-09-19T04:04:48;14.60;73.10
56538;DHT22;42435;53.292;6.000;2023-09-19T04:07:14;14.60;73.30
56538;DHT22;42435;53.292;6.000;2023-09-19T04:09:39;14.60;73.30
56538;DHT22;42435;53.292;6.000;2023-09-19T04:12:05;14.60;73.30
56538;DHT22;42435;53.292;6.000;2023-09-19T04:14:31;14.60;73.40
56538;DHT22;42435;53.292;6.000;2023-09-19T04:16:58;14.60;73.40
56538;DHT22;42435;53.292;6.000;2023-09-19T04:19:23;14.60;73.50
56538;DHT22;42435;53.292;6.000;2023-09-19T04:21:49;14.60;73.60
56538;DHT22;42435;53.292;6.000;2023-09-19T04:24:14;14.70;73.70
56538;DHT22;42435;53.292;6.000;2023-09-19T04:26:40;14.70;73.70
56538;DHT22;42435;53.292;6.000;2023-09-19T04:29:06;14.70;73.80
56538;DHT22;42435;53.292;6.000;2023-09-19T04:31:32;14.70;73.80
56538;DHT22;42435;53.292;6.000;2023-09-19T04:33:57;14.70;73.90
56538;DHT22;42435;53.292;6.000;2023-09-19T04:36:24;14.80;74.00
56538;DHT22;42435;53.292;6.000;2023-09-19T04:38:50;14.80;74.10
56538;DHT22;42435;53.292;6.000;2023-09-19T04:41:15;14.80;74.20
56538;DHT22;42435;53.292;6.000;2023-09-19T04:43:41;14.80;74.20
56538;DHT22;42435;53.292;6.000;2023-09-19T04:46:06;14.80;74.10
56538;DHT22;42435;53.292;6.000;2023-09-19T04:48:32;14.90;74.10
56538;DHT22;42435;53.292;6.000;2023-09-19T04:51:02;14.90;74.20
56538;DHT22;42435;53.292;6.000;2023-09-19T04:53:28;14.90;74.20
56538;DHT22;42435;53.292;6.000;2023-09-19T04:55:54;14.90;74.10
56538;DHT22;42435;53.292;6.000;2023-09-19T04:58:21;14.90;74.10
56538;DHT22;42435;53.292;6.000;2023-09-19T05:00:47;14.90;74.00
56538;DHT22;42435;53.292;6.000;2023-09-19T05:03:16;14.90;73.90
56538;DHT22;42435;53.292;6.000;2023-09-19T05:05:42;15.00;73.60
56538;DHT22;42435;53.292;6.000;2023-09-19T05:08:08;15.00;73.50
56538;DHT22;42435;53.292;6.000;2023-09-19T05:10:35;15.00;73.30
56538;DHT22;42435;53.292;6.000;2023-09-19T05:13:04;15.00;73.00
56538;DHT22;42435;53.292;6.000;2023-09-19T05:15:30;15.00;72.90
56538;DHT22;42435;53.292;6.000;2023-09-19T05:17:56;15.10;72.70
56538;DHT22;42435;53.292;6.000;2023-09-19T05:20:22;15.10;72.50
56538;DHT22;42435;53.292;6.000;2023-09-19T05:23:01;15.10;72.30
56538;DHT22;42435;53.292;6.000;2023-09-19T05:25:37;15.20;72.20
56538;DHT22;42435;53.292;6.000;2023-09-19T05:28:04;15.20;72.20
56538;DHT22;42435;53.292;6.000;2023-09-19T05:30:31;15.20;72.20
56538;DHT22;42435;53.292;6.000;2023-09-19T05:32:57;15.20;72.20
56538;DHT22;42435;53.292;6.000;2023-09-19T05:35:24;15.20;72.10
56538;DHT22;42435;53.292;6.000;2023-09-19T05:37:51;15.20;72.20
56538;DHT22;42435;53.292;6.000;2023-09-19T05:40:20;15.30;72.20
56538;DHT22;42435;53.292;6.000;2023-09-19T05:42:46;15.30;72.40
56538;DHT22;42435;53.292;6.000;2023-09-19T05:45:15;15.30;72.40
56538;DHT22;42435;53.292;6.000;2023-09-19T05:47:44;15.40;72.40
56538;DHT22;42435;53.292;6.000;2023-09-19T05:50:12;15.30;72.30
56538;DHT22;42435;53.292;6.000;2023-09-19T05:52:41;15.40;72.30
56538;DHT22;42435;53.292;6.000;2023-09-19T05:55:10;15.40;72.20
56538;DHT22;42435;53.292;6.000;2023-09-19T05:57:36;15.40;72.20
56538;DHT22;42435;53.292;6.000;2023-09-19T06:00:05;15.50;72.10
56538;DHT22;42435;53.292;6.000;2023-09-19T06:02:36;15.50;72.30
56538;DHT22;42435;53.292;6.000;2023-09-19T06:05:06;15.50;72.30
56538;DHT22;42435;53.292;6.000;2023-09-19T06:07:36;15.50;72.20
56538;DHT22;42435;53.292;6.000;2023-09-19T06:10:05;15.60;72.10
56538;DHT22;42435;53.292;6.000;2023-09-19T06:12:32;15.60;72.20
56538;DHT22;42435;53.292;6.000;2023-09-19T06:15:04;15.60;72.30
56538;DHT22;42435;53.292;6.000;2023-09-19T06:17:31;15.70;72.40
56538;DHT22;42435;53.292;6.000;2023-09-19T06:19:56;15.70;72.40
56538;DHT22;42435;53.292;6.000;2023-09-19T06:22:22;15.70;72.40
56538;DHT22;42435;53.292;6.000;2023-09-19T06:24:49;15.70;72.50
56538;DHT22;42435;53.292;6.000;2023-09-19T06:27:15;15.70;72.40
56538;DHT22;42435;53.292;6.000;2023-09-19T06:29:41;15.80;72.30
56538;DHT22;42435;53.292;6.000;2023-09-19T06:32:08;15.80;72.20
56538;DHT22;42435;53.292;6.000;2023-09-19T06:34:37;15.80;71.80
56538;DHT22;42435;53.292;6.000;2023-09-19T06:37:04;15.90;71.70
56538;DHT22;42435;53.292;6.000;2023-09-19T06:39:31;15.90;71.70
56538;DHT22;42435;53.292;6.000;2023-09-19T06:41:57;15.90;71.70
56538;DHT22;42435;53.292;6.000;2023-09-19T06:44:23;15.90;71.80
56538;DHT22;42435;53.292;6.000;2023-09-19T06:46:50;16.00;71.80
56538;DHT22;42435;53.292;6.000;2023-09-19T06:49:17;16.00;71.80
56538;DHT22;42435;53.292;6.000;2023-09-19T06:51:43;16.00;71.70
56538;DHT22;42435;53.292;6.000;2023-09-19T06:54:09;16.10;71.40
56538;DHT22;42435;53.292;6.000;2023-09-19T06:56:35;16.10;71.20
56538;DHT22;42435;53.292;6.000;2023-09-19T06:59:00;16.20;71.10
56538;DHT22;42435;53.292;6.000;2023-09-19T07:01:28;16.30;70.90
56538;DHT22;42435;53.292;6.000;2023-09-19T07:03:53;16.30;70.70
56538;DHT22;42435;53.292;6.000;2023-09-19T07:06:20;16.30;70.60
56538;DHT22;42435;53.292;6.000;2023-09-19T07:08:45;16.40;70.40
56538;DHT22;42435;53.292;6.000;2023-09-19T07:11:11;16.40;70.20
56538;DHT22;42435;53.292;6.000;2023-09-19T07:13:38;16.50;70.10
56538;DHT22;42435;53.292;6.000;2023-09-19T07:16:04;16.50;69.70
56538;DHT22;42435;53.292;6.000;2023-09-19T07:18:30;16.60;69.30
56538;DHT22;42435;53.292;6.000;2023-09-19T07:20:57;16.60;69.00
56538;DHT22;42435;53.292;6.000;2023-09-19T07:23:26;16.70;68.90
56538;DHT22;42435;53.292;6.000;2023-09-19T07:25:57;16.70;68.90
56538;DHT22;42435;53.292;6.000;2023-09-19T07:28:24;16.70;68.70
56538;DHT22;42435;53.292;6.000;2023-09-19T07:30:49;16.80;68.60
56538;DHT22;42435;53.292;6.000;2023-09-19T07:33:15;16.90;68.30
56538;DHT22;42435;53.292;6.000;2023-09-19T07:35:44;16.90;68.20
56538;DHT22;42435;53.292;6.000;2023-09-19T07:38:11;17.00;68.30
56538;DHT22;42435;53.292;6.000;2023-09-19T07:40:37;17.20;68.00
56538;DHT22;42435;53.292;6.000;2023-09-19T07:43:02;17.30;67.70
56538;DHT22;42435;53.292;6.000;2023-09-19T07:45:30;17.40;67.60
56538;DHT22;42435;53.292;6.000;2023-09-19T07:47:56;17.50;66.90
56538;DHT22;42435;53.292;6.000;2023-09-19T07:50:22;17.60;66.60
56538;DHT22;42435;53.292;6.000;2023-09-19T07:52:49;17.60;66.10
56538;DHT22;42435;53.292;6.000;2023-09-19T07:55:16;17.70;65.70
56538;DHT22;42435;53.292;6.000;2023-09-19T07:57:43;17.70;65.40
56538;DHT22;42435;53.292;6.000;2023-09-19T08:00:09;17.80;65.40
56538;DHT22;42435;53.292;6.000;2023-09-19T08:02:41;17.90;65.20
56538;DHT22;42435;53.292;6.000;2023-09-19T08:05:11;17.90;65.30
56538;DHT22;42435;53.292;6.000;2023-09-19T08:07:42;18.00;65.10
56538;DHT22;42435;53.292;6.000;2023-09-19T08:10:09;18.20;65.00
56538;DHT22;42435;53.292;6.000;2023-09-19T08:12:43;18.40;64.80
56538;DHT22;42435;53.292;6.000;2023-09-19T08:15:21;18.60;63.80
56538;DHT22;42435;53.292;6.000;2023-09-19T08:17:47;18.70;63.50
56538;DHT22;42435;53.292;6.000;2023-09-19T08:20:13;18.80;63.20
56538;DHT22;42435;53.292;6.000;2023-09-19T08:22:50;19.00;62.90
56538;DHT22;42435;53.292;6.000;2023-09-19T08:25:18;19.10;62.80
56538;DHT22;42435;53.292;6.000;2023-09-19T08:27:48;19.20;62.60
56538;DHT22;42435;53.292;6.000;2023-09-19T08:30:19;19.30;62.40
56538;DHT22;42435;53.292;6.000;2023-09-19T08:33:00;19.40;61.90
56538;DHT22;42435;53.292;6.000;2023-09-19T08:35:27;19.40;61.50
56538;DHT22;42435;53.292;6.000;2023-09-19T08:37:53;19.50;61.00
56538;DHT22;42435;53.292;6.000;2023-09-19T08:40:18;19.50;60.30
56538;DHT22;42435;53.292;6.000;2023-09-19T08:45:15;19.40;60.40
56538;DHT22;42435;53.292;6.000;2023-09-19T08:47:47;19.30;60.90
56538;DHT22;42435;53.292;6.000;2023-09-19T08:50:26;19.30;60.70
56538;DHT22;42435;53.292;6.000;2023-09-19T08:52:55;19.20;60.50
56538;DHT22;42435;53.292;6.000;2023-09-19T08:55:25;19.20;60.20
56538;DHT22;42435;53.292;6.000;2023-09-19T08:57:52;19.20;61.10
56538;DHT22;42435;53.292;6.000;2023-09-19T09:00:24;19.20;60.70
56538;DHT22;42435;53.292;6.000;2023-09-19T09:02:54;19.40;60.00
56538;DHT22;42435;53.292;6.000;2023-09-19T09:05:20;19.40;59.90
56538;DHT22;42435;53.292;6.000;2023-09-19T09:07:49;19.50;59.50
56538;DHT22;42435;53.292;6.000;2023-09-19T09:10:20;19.60;58.70
56538;DHT22;42435;53.292;6.000;2023-09-19T09:12:52;19.60;58.30
56538;DHT22;42435;53.292;6.000;2023-09-19T09:15:29;19.70;58.00
56538;DHT22;42435;53.292;6.000;2023-09-19T09:17:56;19.70;57.70
56538;DHT22;42435;53.292;6.000;2023-09-19T09:20:23;19.70;58.10
56538;DHT22;42435;53.292;6.000;2023-09-19T09:22:53;19.70;58.40
56538;DHT22;42435;53.292;6.000;2023-09-19T09:25:22;19.80;58.40
56538;DHT22;42435;53.292;6.000;2023-09-19T09:28:01;19.90;59.00
56538;DHT22;42435;53.292;6.000;2023-09-19T09:30:35;20.00;58.20
56538;DHT22;42435;53.292;6.000;2023-09-19T09:33:11;20.00;57.70
56538;DHT22;42435;53.292;6.000;2023-09-19T09:35:58;20.20;57.80
56538;DHT22;42435;53.292;6.000;2023-09-19T09:38:47;20.30;57.60
56538;DHT22;42435;53.292;6.000;2023-09-19T09:41:15;20.30;57.10
56538;DHT22;42435;53.292;6.000;2023-09-19T09:43:52;20.30;57.10
56538;DHT22;42435;53.292;6.000;2023-09-19T09:46:20;20.40;57.10
56538;DHT22;42435;53.292;6.000;2023-09-19T09:48:58;20.50;57.00
56538;DHT22;42435;53.292;6.000;2023-09-19T09:51:45;20.60;57.20
56538;DHT22;42435;53.292;6.000;2023-09-19T09:54:26;20.70;57.30
56538;DHT22;42435;53.292;6.000;2023-09-19T09:57:09;20.80;56.90
56538;DHT22;42435;53.292;6.000;2023-09-19T09:59:54;20.70;56.70
56538;DHT22;42435;53.292;6.000;2023-09-19T10:02:28;20.70;56.70
56538;DHT22;42435;53.292;6.000;2023-09-19T10:05:16;20.70;57.10
56538;DHT22;42435;53.292;6.000;2023-09-19T10:07:42;20.70;57.10
56538;DHT22;42435;53.292;6.000;2023-09-19T10:10:15;20.80;57.30
56538;DHT22;42435;53.292;6.000;2023-09-19T10:12:55;20.80;57.20
56538;DHT22;42435;53.292;6.000;2023-09-19T10:15:31;20.90;57.30
56538;DHT22;42435;53.292;6.000;2023-09-19T10:17:59;20.90;57.00
56538;DHT22;42435;53.292;6.000;2023-09-19T10:20:26;20.90;57.00
56538;DHT22;42435;53.292;6.000;2023-09-19T10:22:56;20.90;57.20
56538;DHT22;42435;53.292;6.000;2023-09-19T10:25:30;21.00;57.10
56538;DHT22;42435;53.292;6.000;2023-09-19T10:28:02;21.00;57.70
56538;DHT22;42435;53.292;6.000;2023-09-19T10:30:43;20.90;58.70
56538;DHT22;42435;53.292;6.000;2023-09-19T10:33:11;20.90;59.60
56538;DHT22;42435;53.292;6.000;2023-09-19T10:35:39;20.90;60.50
56538;DHT22;42435;53.292;6.000;2023-09-19T10:38:09;20.90;61.20
56538;DHT22;42435;53.292;6.000;2023-09-19T10:40:37;21.00;61.30
56538;DHT22;42435;53.292;6.000;2023-09-19T10:43:06;20.90;61.40
56538;DHT22;42435;53.292;6.000;2023-09-19T10:45:35;20.90;61.80
56538;DHT22;42435;53.292;6.000;2023-09-19T10:48:07;20.90;61.90
56538;DHT22;42435;53.292;6.000;2023-09-19T10:50:46;20.90;61.90
56538;DHT22;42435;53.292;6.000;2023-09-19T10:53:14;20.90;62.00
56538;DHT22;42435;53.292;6.000;2023-09-19T10:55:52;20.80;61.90
56538;DHT22;42435;53.292;6.000;2023-09-19T10:58:27;20.70;62.00
56538;DHT22;42435;53.292;6.000;2023-09-19T11:00:56;20.50;62.40
56538;DHT22;42435;53.292;6.000;2023-09-19T11:03:23;20.40;62.70
56538;DHT22;42435;53.292;6.000;2023-09-19T11:06:06;20.10;63.10
56538;DHT22;42435;53.292;6.000;2023-09-19T11:08:55;20.00;64.00
56538;DHT22;42435;53.292;6.000;2023-09-19T11:14:28;19.80;65.30
56538;DHT22;42435;53.292;6.000;2023-09-19T11:17:32;19.80;65.60
56538;DHT22;42435;53.292;6.000;2023-09-19T11:30:47;20.00;65.90
56538;DHT22;42435;53.292;6.000;2023-09-19T11:33:19;20.00;66.20
56538;DHT22;42435;53.292;6.000;2023-09-19T11:35:59;19.90;66.30
56538;DHT22;42435;53.292;6.000;2023-09-19T11:46:30;19.80;66.60
56538;DHT22;42435;53.292;6.000;2023-09-19T11:49:06;19.70;66.80
56538;DHT22;42435;53.292;6.000;2023-09-19T11:51:42;19.70;67.50
56538;DHT22;42435;53.292;6.000;2023-09-19T11:54:14;19.60;67.90
56538;DHT22;42435;53.292;6.000;2023-09-19T11:56:51;19.50;68.30
56538;DHT22;42435;53.292;6.000;2023-09-19T11:59:25;19.20;68.80
56538;DHT22;42435;53.292;6.000;2023-09-19T12:02:00;19.10;69.70
56538;DHT22;42435;53.292;6.000;2023-09-19T12:04:42;19.00;70.40
56538;DHT22;42435;53.292;6.000;2023-09-19T12:07:15;18.80;71.70
56538;DHT22;42435;53.292;6.000;2023-09-19T12:10:03;18.60;72.30
56538;DHT22;42435;53.292;6.000;2023-09-19T12:12:30;18.50;73.50
56538;DHT22;42435;53.292;6.000;2023-09-19T12:14:56;18.40;74.00
56538;DHT22;42435;53.292;6.000;2023-09-19T12:17:41;18.50;74.60
56538;DHT22;42435;53.292;6.000;2023-09-19T12:20:08;18.40;75.40
56538;DHT22;42435;53.292;6.000;2023-09-19T12:22:44;18.40;75.40
56538;DHT22;42435;53.292;6.000;2023-09-19T12:25:11;18.50;75.70
56538;DHT22;42435;53.292;6.000;2023-09-19T12:27:50;18.50;75.70
56538;DHT22;42435;53.292;6.000;2023-09-19T12:30:19;18.50;75.60
56538;DHT22;42435;53.292;6.000;2023-09-19T12:32:48;18.60;75.50
56538;DHT22;42435;53.292;6.000;2023-09-19T12:35:32;18.60;75.30
56538;DHT22;42435;53.292;6.000;2023-09-19T12:38:02;18.70;75.30
56538;DHT22;42435;53.292;6.000;2023-09-19T12:40:29;18.90;75.00
56538;DHT22;42435;53.292;6.000;2023-09-19T12:42:59;18.90;74.60
56538;DHT22;42435;53.292;6.000;2023-09-19T12:45:25;19.00;74.20
56538;DHT22;42435;53.292;6.000;2023-09-19T12:51:08;19.00;74.00
56538;DHT22;42435;53.292;6.000;2023-09-19T12:56:06;18.90;74.10
56538;DHT22;42435;53.292;6.000;2023-09-19T12:58:34;18.90;74.10
56538;DHT22;42435;53.292;6.000;2023-09-19T13:01:00;18.90;74.40
56538;DHT22;42435;53.292;6.000;2023-09-19T13:03:30;18.80;74.80
56538;DHT22;42435;53.292;6.000;2023-09-19T13:06:02;18.70;75.10
56538;DHT22;42435;53.292;6.000;2023-09-19T13:08:37;18.60;75.60
56538;DHT22;42435;53.292;6.000;2023-09-19T13:11:17;18.50;75.90
56538;DHT22;42435;53.292;6.000;2023-09-19T13:14:15;18.40;76.50
56538;DHT22;42435;53.292;6.000;2023-09-19T13:16:57;18.40;77.00
56538;DHT22;42435;53.292;6.000;2023-09-19T13:19:43;18.40;77.10
56538;DHT22;42435;53.292;6.000;2023-09-19T13:22:39;18.50;77.00
56538;DHT22;42435;53.292;6.000;2023-09-19T13:25:16;18.60;76.60
56538;DHT22;42435;53.292;6.000;2023-09-19T13:27:47;18.60;76.40
56538;DHT22;42435;53.292;6.000;2023-09-19T13:30:17;18.70;76.20
56538;DHT22;42435;53.292;6.000;2023-09-19T13:32:43;18.70;76.00
56538;DHT22;42435;53.292;6.000;2023-09-19T13:35:11;18.80;75.90
56538;DHT22;42435;53.292;6.000;2023-09-19T13:37:41;18.80;75.80
56538;DHT22;42435;53.292;6.000;2023-09-19T13:40:13;18.90;75.70
56538;DHT22;42435;53.292;6.000;2023-09-19T13:42:39;18.90;75.60
56538;DHT22;42435;53.292;6.000;2023-09-19T13:45:06;19.00;75.40
56538;DHT22;42435;53.292;6.000;2023-09-19T13:47:36;19.10;75.20
56538;DHT22;42435;53.292;6.000;2023-09-19T13:50:04;19.10;75.00
56538;DHT22;42435;53.292;6.000;2023-09-19T13:52:31;19.10;74.80
56538;DHT22;42435;53.292;6.000;2023-09-19T13:54:57;19.20;74.90
56538;DHT22;42435;53.292;6.000;2023-09-19T13:57:26;19.10;74.80
56538;DHT22;42435;53.292;6.000;2023-09-19T13:59:53;19.10;75.00
56538;DHT22;42435;53.292;6.000;2023-09-19T14:02:24;19.10;75.00
56538;DHT22;42435;53.292;6.000;2023-09-19T14:04:54;19.10;75.10
56538;DHT22;42435;53.292;6.000;2023-09-19T14:07:20;19.10;75.00
56538;DHT22;42435;53.292;6.000;2023-09-19T14:09:46;19.20;74.80
56538;DHT22;42435;53.292;6.000;2023-09-19T14:12:15;19.20;74.90
56538;DHT22;42435;53.292;6.000;2023-09-19T14:14:41;19.10;75.10
56538;DHT22;42435;53.292;6.000;2023-09-19T14:17:08;19.10;75.40
56538;DHT22;42435;53.292;6.000;2023-09-19T14:19:34;19.00;76.00
56538;DHT22;42435;53.292;6.000;2023-09-19T14:22:02;18.80;76.50
56538;DHT22;42435;53.292;6.000;2023-09-19T14:24:33;18.80;77.00
56538;DHT22;42435;53.292;6.000;2023-09-19T14:26:58;18.70;77.50
56538;DHT22;42435;53.292;6.000;2023-09-19T14:29:24;18.60;77.80
56538;DHT22;42435;53.292;6.000;2023-09-19T14:31:51;18.50;78.10
56538;DHT22;42435;53.292;6.000;2023-09-19T14:34:17;18.50;78.40
56538;DHT22;42435;53.292;6.000;2023-09-19T14:36:43;18.50;78.60
56538;DHT22;42435;53.292;6.000;2023-09-19T14:39:08;18.40;78.70
56538;DHT22;42435;53.292;6.000;2023-09-19T14:41:34;18.50;78.90
56538;DHT22;42435;53.292;6.000;2023-09-19T14:44:02;18.50;78.90
56538;DHT22;42435;53.292;6.000;2023-09-19T14:46:28;18.40;79.00
56538;DHT22;42435;53.292;6.000;2023-09-19T14:48:54;18.40;78.90
56538;DHT22;42435;53.292;6.000;2023-09-19T14:51:22;18.40;78.80
56538;DHT22;42435;53.292;6.000;2023-09-19T14:53:48;18.40;78.80
56538;DHT22;42435;53.292;6.000;2023-09-19T14:56:14;18.40;78.80
56538;DHT22;42435;53.292;6.000;2023-09-19T14:58:44;18.40;78.80
56538;DHT22;42435;53.292;6.000;2023-09-19T15:01:10;18.40;78.80
56538;DHT22;42435;53.292;6.000;2023-09-19T15:03:37;18.40;78.70
56538;DHT22;42435;53.292;6.000;2023-09-19T15:06:05;18.50;78.70
56538;DHT22;42435;53.292;6.000;2023-09-19T15:08:32;18.50;78.50
56538;DHT22;42435;53.292;6.000;2023-09-19T15:11:04;18.50;78.40
56538;DHT22;42435;53.292;6.000;2023-09-19T15:13:31;18.50;78.30
56538;DHT22;42435;53.292;6.000;2023-09-19T15:16:00;18.50;78.10
56538;DHT22;42435;53.292;6.000;2023-09-19T15:18:27;18.60;78.00
56538;DHT22;42435;53.292;6.000;2023-09-19T15:20:52;18.60;78.00
56538;DHT22;42435;53.292;6.000;2023-09-19T15:23:20;18.60;77.90
56538;DHT22;42435;53.292;6.000;2023-09-19T15:25:49;18.70;77.90
56538;DHT22;42435;53.292;6.000;2023-09-19T15:28:15;18.70;77.80
56538;DHT22;42435;53.292;6.000;2023-09-19T15:30:41;18.60;77.70
56538;DHT22;42435;53.292;6.000;2023-09-19T15:33:06;18.70;77.80
56538;DHT22;42435;53.292;6.000;2023-09-19T15:35:32;18.70;77.80
56538;DHT22;42435;53.292;6.000;2023-09-19T15:37:57;18.60;77.90
56538;DHT22;42435;53.292;6.000;2023-09-19T15:40:26;18.70;78.00
56538;DHT22;42435;53.292;6.000;2023-09-19T15:42:54;18.70;78.10
56538;DHT22;42435;53.292;6.000;2023-09-19T15:45:19;18.70;78.20
56538;DHT22;42435;53.292;6.000;2023-09-19T15:47:45;18.70;78.30
56538;DHT22;42435;53.292;6.000;2023-09-19T15:50:11;18.70;78.40
56538;DHT22;42435;53.292;6.000;2023-09-19T15:52:39;18.70;78.50
56538;DHT22;42435;53.292;6.000;2023-09-19T15:55:05;18.70;78.60
56538;DHT22;42435;53.292;6.000;2023-09-19T15:57:37;18.70;78.70
56538;DHT22;42435;53.292;6.000;2023-09-19T16:00:03;18.60;78.90
56538;DHT22;42435;53.292;6.000;2023-09-19T16:02:38;18.60;79.00
56538;DHT22;42435;53.292;6.000;2023-09-19T16:05:04;18.60;79.20
56538;DHT22;42435;53.292;6.000;2023-09-19T16:07:32;18.50;79.40
56538;DHT22;42435;53.292;6.000;2023-09-19T16:10:02;18.50;79.70
56538;DHT22;42435;53.292;6.000;2023-09-19T16:12:28;18.40;79.90
56538;DHT22;42435;53.292;6.000;2023-09-19T16:14:53;18.40;80.20
56538;DHT22;42435;53.292;6.000;2023-09-19T16:17:19;18.40;80.30
56538;DHT22;42435;53.292;6.000;2023-09-19T16:19:44;18.30;80.60
56538;DHT22;42435;53.292;6.000;2023-09-19T16:22:10;18.30;80.80
56538;DHT22;42435;53.292;6.000;2023-09-19T16:24:36;18.20;81.00